Terminal Aerodrome Forecast
Issued by NWS North Platte, NE

Home | Current Version | Previous Version | Graphics & Text | Print | Product List | Glossary On
Versions: 1 2 3 4 5 6 7 8 9 10 11 12 13 14 15 16 17 18 19 20 21
000
FTUS43 KLBF 212320
TAFVTN
TAF
KVTN 212320Z 2200/2224 10012KT P6SM BKN025
     FM220300 11011KT P6SM OVC035
     FM220400 12011KT P6SM VCSH OVC045
     FM220600 13013G19KT 5SM -SN OVC040
     FM221000 14014G23KT P6SM VCSH OVC040
     FM221200 15014G23KT P6SM OVC060
     FM221600 17019G27KT P6SM BKN050
     FM222000 18018G27KT P6SM SCT200=

USA.gov is the U.S. government's official web portal to all federal, state and local government web resources and services.